Wheatland, Iowa
Current Conditions -  °F | °C
As of 11:52 AM on Friday 19 Dec 2014 (Local Time) from KDVN Reporting Station
Overcast Overcast  
Wind Chill: 22°   Ceiling: 7000
Heat Index: 28°   Visibility: 10mi
Dew Point: 20°   Wind: 6mph
Humidity: 72%   Direction: 90°E
Pressure: 30.3"   Gusts: NA
Location:  41.83°N, 90.84°W
Report Text: KDVN 191752Z AUTO 09005KT 10SM OVC070 M02/M07 A3030 RMK AO2 SLP271 T10221067 11022 21100 58008
Loading
Personal Weather Stations






























Interactive Weather Map New forecast layout! Learn more

10-Day Weather Forecast

Advertisements
Track Severe Weather on mobile